createdAt,value
2023-03-19T00:07:56.184Z,98802.35
2023-03-19T00:18:21.885Z,98802.20
2023-03-19T00:28:47.470Z,98795.21
2023-03-19T00:39:13.820Z,98790.89
2023-03-19T00:49:39.904Z,98788.23
2023-03-19T01:00:06.483Z,98785.96
2023-03-19T01:10:34.257Z,98785.08
2023-03-19T01:21:00.601Z,98784.04
2023-03-19T01:31:26.534Z,98781.76
2023-03-19T01:41:52.750Z,98780.79
2023-03-19T01:52:18.587Z,98786.64
2023-03-19T02:02:45.841Z,98785.14
2023-03-19T02:13:11.738Z,98785.43
2023-03-19T02:23:45.114Z,98779.60
2023-03-19T02:34:37.071Z,98790.85
2023-03-19T02:45:02.390Z,98799.23
2023-03-19T02:55:28.097Z,98806.84
2023-03-19T03:05:53.595Z,98812.10
2023-03-19T03:16:19.469Z,98812.51
2023-03-19T03:26:45.328Z,98816.05
2023-03-19T03:37:11.323Z,98813.91
2023-03-19T03:47:37.372Z,98812.03
2023-03-19T03:58:04.203Z,98812.70
2023-03-19T04:08:30.327Z,98812.55
2023-03-19T04:18:56.245Z,98811.46
2023-03-19T04:29:23.168Z,98809.34
2023-03-19T04:39:48.849Z,98804.86
2023-03-19T04:50:14.804Z,98801.11
2023-03-19T05:00:40.476Z,98803.55
2023-03-19T05:11:06.425Z,98800.84
2023-03-19T05:21:32.132Z,98801.38
2023-03-19T05:31:57.826Z,98806.20
2023-03-19T05:42:23.607Z,98813.23
2023-03-19T05:52:49.263Z,98812.66
2023-03-19T06:03:15.218Z,98821.35
2023-03-19T06:13:41.522Z,98820.54
2023-03-19T06:24:07.974Z,98822.81
2023-03-19T06:34:33.442Z,98820.66
2023-03-19T06:44:59.354Z,98833.38
2023-03-19T06:55:24.824Z,98833.84
2023-03-19T07:05:53.004Z,98822.98
2023-03-19T07:16:18.974Z,98811.49
2023-03-19T07:26:45.067Z,98814.64
2023-03-19T07:37:11.877Z,98817.69
2023-03-19T07:47:37.318Z,98819.89
2023-03-19T07:58:02.813Z,98819.98
2023-03-19T08:08:28.365Z,98807.95
2023-03-19T08:18:54.082Z,98790.05
2023-03-19T08:29:23.089Z,98782.45
2023-03-19T08:39:51.195Z,98785.80
2023-03-19T08:50:17.420Z,98784.91
2023-03-19T09:00:43.538Z,98780.54
2023-03-19T09:11:10.674Z,98783.14
2023-03-19T09:21:37.127Z,98795.89
2023-03-19T09:32:03.406Z,98790.92
2023-03-19T09:42:42.206Z,98774.77
2023-03-19T09:53:16.383Z,98767.15
2023-03-19T10:03:59.903Z,98765.41
2023-03-19T10:14:46.920Z,98762.16
2023-03-19T10:25:21.060Z,98752.85
2023-03-19T10:35:50.486Z,98747.02
2023-03-19T10:46:17.629Z,98730.17
2023-03-19T10:56:48.740Z,98714.90
2023-03-19T11:07:19.536Z,98701.27
2023-03-19T11:17:50.021Z,98683.53
2023-03-19T11:28:20.901Z,98673.42
2023-03-19T11:39:00.802Z,98652.38
2023-03-19T11:49:43.719Z,98643.96
2023-03-19T12:00:23.581Z,98632.15
2023-03-19T12:11:11.357Z,98615.83
2023-03-19T12:21:51.077Z,98609.58
2023-03-19T12:32:37.983Z,98611.20
2023-03-19T12:43:08.262Z,98598.70
2023-03-19T12:53:45.017Z,98593.17
2023-03-19T13:04:15.665Z,98592.52
2023-03-19T13:14:51.449Z,98595.66
2023-03-19T13:25:22.447Z,98602.11
2023-03-19T13:35:50.867Z,98594.27
2023-03-19T13:46:46.463Z,98582.61
2023-03-19T13:57:36.652Z,98571.38
2023-03-19T14:08:02.467Z,98560.19
2023-03-19T14:18:30.673Z,98556.07
2023-03-19T14:29:03.670Z,98540.98
2023-03-19T14:39:32.866Z,98537.78
2023-03-19T14:50:20.571Z,98542.54
2023-03-19T15:00:50.349Z,98541.58
2023-03-19T15:11:34.175Z,98532.90
2023-03-19T15:22:12.973Z,98536.55
2023-03-19T15:33:02.839Z,98538.16
2023-03-19T15:43:28.864Z,98542.06
2023-03-19T15:53:55.458Z,98547.89
2023-03-19T16:04:26.983Z,98537.81
2023-03-19T16:14:52.425Z,98545.34
2023-03-19T16:25:20.760Z,98547.90
2023-03-19T16:35:46.756Z,98559.06
2023-03-19T16:46:16.694Z,98560.55
2023-03-19T16:56:42.625Z,98567.66
2023-03-19T17:07:09.155Z,98580.48
2023-03-19T17:17:34.546Z,98588.41
2023-03-19T17:28:00.614Z,98599.08
2023-03-19T17:38:36.242Z,98609.41
2023-03-19T17:49:02.113Z,98619.81
2023-03-19T17:59:28.516Z,98628.35
2023-03-19T18:09:54.355Z,98627.10
2023-03-19T18:20:23.418Z,98636.34
2023-03-19T18:30:49.308Z,98645.40
2023-03-19T18:41:20.189Z,98647.79
2023-03-19T18:52:00.996Z,98655.35
2023-03-19T19:02:35.092Z,98661.86
2023-03-19T19:13:02.219Z,98665.07
2023-03-19T19:23:30.307Z,98668.01
2023-03-19T19:33:56.464Z,98666.27
2023-03-19T19:44:23.602Z,98670.00
2023-03-19T19:54:51.927Z,98679.77
2023-03-19T20:05:21.890Z,98679.69
2023-03-19T20:15:47.800Z,98682.87
2023-03-19T20:26:16.708Z,98686.08
2023-03-19T20:36:42.171Z,98695.14
2023-03-19T20:47:17.699Z,98695.00
2023-03-19T20:57:44.180Z,98691.71
2023-03-19T21:08:19.640Z,98690.03
2023-03-19T21:18:45.500Z,98696.27
2023-03-19T21:29:16.771Z,98697.80
2023-03-19T21:39:42.966Z,98694.36
2023-03-19T21:50:15.766Z,98693.54
2023-03-19T22:00:41.741Z,98690.29
2023-03-19T22:11:15.195Z,98689.76
2023-03-19T22:21:41.381Z,98682.13
2023-03-19T22:32:16.027Z,98680.41
2023-03-19T22:42:42.561Z,98674.17
2023-03-19T22:53:20.874Z,98663.41
2023-03-19T23:03:46.912Z,98657.70
2023-03-19T23:14:27.894Z,98657.02
2023-03-19T23:24:55.518Z,98661.90
2023-03-19T23:35:24.036Z,98667.46
2023-03-19T23:45:50.166Z,98669.52
2023-03-19T23:56:21.445Z,98659.31
